sensor_id;sensor_type;location;lat;lon;timestamp;temperature;humidity
14188;DHT22;7175;51.978;5.330;2023-02-01T00:01:26;5.80;99.90
14188;DHT22;7175;51.978;5.330;2023-02-01T00:03:54;5.80;99.90
14188;DHT22;7175;51.978;5.330;2023-02-01T00:06:23;5.90;99.90
14188;DHT22;7175;51.978;5.330;2023-02-01T00:08:52;5.90;99.90
14188;DHT22;7175;51.978;5.330;2023-02-01T00:11:21;5.90;99.90
14188;DHT22;7175;51.978;5.330;2023-02-01T00:13:50;5.90;99.90
14188;DHT22;7175;51.978;5.330;2023-02-01T00:16:21;5.80;99.90
14188;DHT22;7175;51.978;5.330;2023-02-01T00:18:51;5.90;99.90
14188;DHT22;7175;51.978;5.330;2023-02-01T00:21:21;5.90;99.90
14188;DHT22;7175;51.978;5.330;2023-02-01T00:23:49;5.90;99.90
14188;DHT22;7175;51.978;5.330;2023-02-01T00:26:18;5.80;99.90
14188;DHT22;7175;51.978;5.330;2023-02-01T00:28:47;5.90;99.90
14188;DHT22;7175;51.978;5.330;2023-02-01T00:31:15;5.90;99.90
14188;DHT22;7175;51.978;5.330;2023-02-01T00:33:46;5.90;99.90
14188;DHT22;7175;51.978;5.330;2023-02-01T00:36:15;5.80;99.90
14188;DHT22;7175;51.978;5.330;2023-02-01T00:38:44;5.80;99.90
14188;DHT22;7175;51.978;5.330;2023-02-01T00:41:14;5.80;99.90
14188;DHT22;7175;51.978;5.330;2023-02-01T00:43:43;5.70;99.90
14188;DHT22;7175;51.978;5.330;2023-02-01T00:46:12;5.80;99.90
14188;DHT22;7175;51.978;5.330;2023-02-01T00:48:41;5.80;99.90
14188;DHT22;7175;51.978;5.330;2023-02-01T00:51:12;5.80;99.90
14188;DHT22;7175;51.978;5.330;2023-02-01T00:53:40;5.80;99.90
14188;DHT22;7175;51.978;5.330;2023-02-01T00:56:11;5.70;99.90
14188;DHT22;7175;51.978;5.330;2023-02-01T00:58:39;5.70;99.90
14188;DHT22;7175;51.978;5.330;2023-02-01T01:01:14;5.60;99.90
14188;DHT22;7175;51.978;5.330;2023-02-01T01:03:45;5.50;99.90
14188;DHT22;7175;51.978;5.330;2023-02-01T01:06:17;5.60;99.90
14188;DHT22;7175;51.978;5.330;2023-02-01T01:08:45;5.60;99.90
14188;DHT22;7175;51.978;5.330;2023-02-01T01:11:16;5.50;99.90
14188;DHT22;7175;51.978;5.330;2023-02-01T01:13:47;5.50;99.90
14188;DHT22;7175;51.978;5.330;2023-02-01T01:16:15;5.50;99.90
14188;DHT22;7175;51.978;5.330;2023-02-01T01:18:44;5.50;99.90
14188;DHT22;7175;51.978;5.330;2023-02-01T01:21:16;5.50;99.90
14188;DHT22;7175;51.978;5.330;2023-02-01T01:23:46;5.40;99.90
14188;DHT22;7175;51.978;5.330;2023-02-01T01:26:16;5.40;99.90
14188;DHT22;7175;51.978;5.330;2023-02-01T01:28:45;5.40;99.90
14188;DHT22;7175;51.978;5.330;2023-02-01T01:31:15;5.30;99.90
14188;DHT22;7175;51.978;5.330;2023-02-01T01:33:43;5.30;99.90
14188;DHT22;7175;51.978;5.330;2023-02-01T01:36:12;5.30;99.90
14188;DHT22;7175;51.978;5.330;2023-02-01T01:38:42;5.30;99.90
14188;DHT22;7175;51.978;5.330;2023-02-01T01:41:13;5.30;99.90
14188;DHT22;7175;51.978;5.330;2023-02-01T01:43:51;5.20;99.90
14188;DHT22;7175;51.978;5.330;2023-02-01T01:46:21;5.20;99.90
14188;DHT22;7175;51.978;5.330;2023-02-01T01:48:54;5.20;99.90
14188;DHT22;7175;51.978;5.330;2023-02-01T01:51:24;5.10;99.90
14188;DHT22;7175;51.978;5.330;2023-02-01T01:53:59;5.20;99.90
14188;DHT22;7175;51.978;5.330;2023-02-01T01:56:31;5.20;99.90
14188;DHT22;7175;51.978;5.330;2023-02-01T01:59:00;5.20;99.90
14188;DHT22;7175;51.978;5.330;2023-02-01T02:01:29;5.20;99.90
14188;DHT22;7175;51.978;5.330;2023-02-01T02:03:57;5.20;99.90
14188;DHT22;7175;51.978;5.330;2023-02-01T02:06:33;5.30;99.90
14188;DHT22;7175;51.978;5.330;2023-02-01T02:09:05;5.40;99.90
14188;DHT22;7175;51.978;5.330;2023-02-01T02:11:33;5.50;99.90
14188;DHT22;7175;51.978;5.330;2023-02-01T02:14:03;5.50;99.90
14188;DHT22;7175;51.978;5.330;2023-02-01T02:16:57;5.70;99.90
14188;DHT22;7175;51.978;5.330;2023-02-01T02:26:00;5.90;99.90
14188;DHT22;7175;51.978;5.330;2023-02-01T02:28:54;6.00;99.90
14188;DHT22;7175;51.978;5.330;2023-02-01T02:34:35;6.20;99.90
14188;DHT22;7175;51.978;5.330;2023-02-01T02:37:15;6.30;99.90
14188;DHT22;7175;51.978;5.330;2023-02-01T02:39:48;6.30;99.90
14188;DHT22;7175;51.978;5.330;2023-02-01T02:42:25;6.40;99.90
14188;DHT22;7175;51.978;5.330;2023-02-01T02:45:17;6.30;99.90
14188;DHT22;7175;51.978;5.330;2023-02-01T02:48:13;6.30;99.90
14188;DHT22;7175;51.978;5.330;2023-02-01T02:50:49;6.40;99.90
14188;DHT22;7175;51.978;5.330;2023-02-01T02:53:40;6.40;99.90
14188;DHT22;7175;51.978;5.330;2023-02-01T02:56:29;6.40;99.90
14188;DHT22;7175;51.978;5.330;2023-02-01T02:59:18;6.40;99.90
14188;DHT22;7175;51.978;5.330;2023-02-01T03:02:05;6.50;99.90
14188;DHT22;7175;51.978;5.330;2023-02-01T03:04:52;6.50;99.90
14188;DHT22;7175;51.978;5.330;2023-02-01T03:07:54;6.60;99.90
14188;DHT22;7175;51.978;5.330;2023-02-01T03:10:28;6.60;99.90
14188;DHT22;7175;51.978;5.330;2023-02-01T03:13:02;6.60;99.90
14188;DHT22;7175;51.978;5.330;2023-02-01T03:15:36;6.60;99.90
14188;DHT22;7175;51.978;5.330;2023-02-01T03:18:09;6.60;99.90
14188;DHT22;7175;51.978;5.330;2023-02-01T03:20:40;6.60;99.90
14188;DHT22;7175;51.978;5.330;2023-02-01T03:23:16;6.60;99.90
14188;DHT22;7175;51.978;5.330;2023-02-01T03:25:48;6.60;99.90
14188;DHT22;7175;51.978;5.330;2023-02-01T03:28:18;6.60;99.90
14188;DHT22;7175;51.978;5.330;2023-02-01T03:30:49;6.50;99.90
14188;DHT22;7175;51.978;5.330;2023-02-01T03:33:18;6.50;99.90
14188;DHT22;7175;51.978;5.330;2023-02-01T03:35:57;6.40;99.90
14188;DHT22;7175;51.978;5.330;2023-02-01T03:38:32;6.40;99.90
14188;DHT22;7175;51.978;5.330;2023-02-01T03:41:05;6.30;99.90
14188;DHT22;7175;51.978;5.330;2023-02-01T03:43:44;6.30;99.90
14188;DHT22;7175;51.978;5.330;2023-02-01T03:46:19;6.20;99.90
14188;DHT22;7175;51.978;5.330;2023-02-01T03:48:50;6.10;99.90
14188;DHT22;7175;51.978;5.330;2023-02-01T03:51:20;6.20;99.90
14188;DHT22;7175;51.978;5.330;2023-02-01T03:53:52;6.10;99.90
14188;DHT22;7175;51.978;5.330;2023-02-01T03:56:22;6.10;99.90
14188;DHT22;7175;51.978;5.330;2023-02-01T03:58:52;6.00;99.90
14188;DHT22;7175;51.978;5.330;2023-02-01T04:01:28;6.10;99.90
14188;DHT22;7175;51.978;5.330;2023-02-01T04:03:56;6.10;99.90
14188;DHT22;7175;51.978;5.330;2023-02-01T04:06:24;6.10;99.90
14188;DHT22;7175;51.978;5.330;2023-02-01T04:08:54;6.10;99.90
14188;DHT22;7175;51.978;5.330;2023-02-01T04:11:22;6.10;99.90
14188;DHT22;7175;51.978;5.330;2023-02-01T04:13:50;6.10;99.90
14188;DHT22;7175;51.978;5.330;2023-02-01T04:16:18;6.30;99.90
14188;DHT22;7175;51.978;5.330;2023-02-01T04:18:47;6.30;99.90
14188;DHT22;7175;51.978;5.330;2023-02-01T04:21:15;6.40;99.90
14188;DHT22;7175;51.978;5.330;2023-02-01T04:23:43;6.40;99.90
14188;DHT22;7175;51.978;5.330;2023-02-01T04:26:13;6.50;99.90
14188;DHT22;7175;51.978;5.330;2023-02-01T04:28:43;6.50;99.90
14188;DHT22;7175;51.978;5.330;2023-02-01T04:31:11;6.50;99.90
14188;DHT22;7175;51.978;5.330;2023-02-01T04:33:39;6.50;99.90
14188;DHT22;7175;51.978;5.330;2023-02-01T04:36:07;6.60;99.90
14188;DHT22;7175;51.978;5.330;2023-02-01T04:38:36;6.50;99.90
14188;DHT22;7175;51.978;5.330;2023-02-01T04:41:04;6.60;99.90
14188;DHT22;7175;51.978;5.330;2023-02-01T04:43:33;6.70;99.90
14188;DHT22;7175;51.978;5.330;2023-02-01T04:46:01;6.60;99.90
14188;DHT22;7175;51.978;5.330;2023-02-01T04:48:30;6.60;99.90
14188;DHT22;7175;51.978;5.330;2023-02-01T04:50:58;6.70;99.90
14188;DHT22;7175;51.978;5.330;2023-02-01T04:53:26;6.60;99.90
14188;DHT22;7175;51.978;5.330;2023-02-01T04:55:55;6.70;99.90
14188;DHT22;7175;51.978;5.330;2023-02-01T04:58:24;6.70;99.90
14188;DHT22;7175;51.978;5.330;2023-02-01T05:00:53;6.70;99.90
14188;DHT22;7175;51.978;5.330;2023-02-01T05:03:21;6.70;99.90
14188;DHT22;7175;51.978;5.330;2023-02-01T05:05:50;6.70;99.90
14188;DHT22;7175;51.978;5.330;2023-02-01T05:08:20;6.60;99.90
14188;DHT22;7175;51.978;5.330;2023-02-01T05:10:49;6.60;99.90
14188;DHT22;7175;51.978;5.330;2023-02-01T05:13:17;6.60;99.90
14188;DHT22;7175;51.978;5.330;2023-02-01T05:16:05;6.60;99.90
14188;DHT22;7175;51.978;5.330;2023-02-01T05:18:33;6.60;99.90
14188;DHT22;7175;51.978;5.330;2023-02-01T05:21:01;6.60;99.90
14188;DHT22;7175;51.978;5.330;2023-02-01T05:23:29;6.50;99.90
14188;DHT22;7175;51.978;5.330;2023-02-01T05:26:01;6.40;99.90
14188;DHT22;7175;51.978;5.330;2023-02-01T05:28:29;6.50;99.90
14188;DHT22;7175;51.978;5.330;2023-02-01T05:30:57;6.50;99.90
14188;DHT22;7175;51.978;5.330;2023-02-01T05:33:27;6.50;99.90
14188;DHT22;7175;51.978;5.330;2023-02-01T05:35:55;6.50;99.90
14188;DHT22;7175;51.978;5.330;2023-02-01T05:38:23;6.50;99.90
14188;DHT22;7175;51.978;5.330;2023-02-01T05:40:52;6.40;99.90
14188;DHT22;7175;51.978;5.330;2023-02-01T05:43:20;6.30;99.90
14188;DHT22;7175;51.978;5.330;2023-02-01T05:45:48;6.40;99.90
14188;DHT22;7175;51.978;5.330;2023-02-01T05:48:16;6.30;99.90
14188;DHT22;7175;51.978;5.330;2023-02-01T05:50:45;6.30;99.90
14188;DHT22;7175;51.978;5.330;2023-02-01T05:53:13;6.30;99.90
14188;DHT22;7175;51.978;5.330;2023-02-01T05:55:42;6.40;99.90
14188;DHT22;7175;51.978;5.330;2023-02-01T05:58:10;6.40;99.90
14188;DHT22;7175;51.978;5.330;2023-02-01T06:00:39;6.50;99.90
14188;DHT22;7175;51.978;5.330;2023-02-01T06:03:07;6.50;99.90
14188;DHT22;7175;51.978;5.330;2023-02-01T06:05:36;6.50;99.90
14188;DHT22;7175;51.978;5.330;2023-02-01T06:08:06;6.50;99.90
14188;DHT22;7175;51.978;5.330;2023-02-01T06:10:34;6.50;99.90
14188;DHT22;7175;51.978;5.330;2023-02-01T06:13:02;6.50;99.90
14188;DHT22;7175;51.978;5.330;2023-02-01T06:15:31;6.50;99.90
14188;DHT22;7175;51.978;5.330;2023-02-01T06:17:59;6.60;99.90
14188;DHT22;7175;51.978;5.330;2023-02-01T06:20:27;6.60;99.90
14188;DHT22;7175;51.978;5.330;2023-02-01T06:22:55;6.50;99.90
14188;DHT22;7175;51.978;5.330;2023-02-01T06:25:25;6.50;99.90
14188;DHT22;7175;51.978;5.330;2023-02-01T06:27:53;6.50;99.90
14188;DHT22;7175;51.978;5.330;2023-02-01T06:30:21;6.50;99.90
14188;DHT22;7175;51.978;5.330;2023-02-01T06:32:51;6.40;99.90
14188;DHT22;7175;51.978;5.330;2023-02-01T06:35:21;6.40;99.90
14188;DHT22;7175;51.978;5.330;2023-02-01T06:37:49;6.30;99.90
14188;DHT22;7175;51.978;5.330;2023-02-01T06:40:18;6.30;99.90
14188;DHT22;7175;51.978;5.330;2023-02-01T06:42:51;6.20;99.90
14188;DHT22;7175;51.978;5.330;2023-02-01T06:45:19;6.20;99.90
14188;DHT22;7175;51.978;5.330;2023-02-01T06:47:47;6.30;99.90
14188;DHT22;7175;51.978;5.330;2023-02-01T06:50:16;6.30;99.90
14188;DHT22;7175;51.978;5.330;2023-02-01T06:52:44;6.20;99.90
14188;DHT22;7175;51.978;5.330;2023-02-01T06:55:12;6.20;99.90
14188;DHT22;7175;51.978;5.330;2023-02-01T06:57:40;6.20;99.90
14188;DHT22;7175;51.978;5.330;2023-02-01T07:00:11;6.20;99.90
14188;DHT22;7175;51.978;5.330;2023-02-01T07:02:39;6.20;99.90
14188;DHT22;7175;51.978;5.330;2023-02-01T07:05:08;6.20;99.90
14188;DHT22;7175;51.978;5.330;2023-02-01T07:07:36;6.20;99.90
14188;DHT22;7175;51.978;5.330;2023-02-01T07:10:05;6.20;99.90
14188;DHT22;7175;51.978;5.330;2023-02-01T07:12:33;6.30;99.90
14188;DHT22;7175;51.978;5.330;2023-02-01T07:15:03;6.30;99.90
14188;DHT22;7175;51.978;5.330;2023-02-01T07:17:32;6.30;99.90
14188;DHT22;7175;51.978;5.330;2023-02-01T07:20:01;6.30;99.90
14188;DHT22;7175;51.978;5.330;2023-02-01T07:22:29;6.30;99.90
14188;DHT22;7175;51.978;5.330;2023-02-01T07:24:58;6.40;99.90
14188;DHT22;7175;51.978;5.330;2023-02-01T07:27:26;6.30;99.90
14188;DHT22;7175;51.978;5.330;2023-02-01T07:29:54;6.30;99.90
14188;DHT22;7175;51.978;5.330;2023-02-01T07:32:23;6.30;99.90
14188;DHT22;7175;51.978;5.330;2023-02-01T07:34:53;6.30;99.90
14188;DHT22;7175;51.978;5.330;2023-02-01T07:37:21;6.40;99.90
14188;DHT22;7175;51.978;5.330;2023-02-01T07:39:50;6.40;99.90
14188;DHT22;7175;51.978;5.330;2023-02-01T07:42:19;6.30;99.90
14188;DHT22;7175;51.978;5.330;2023-02-01T07:44:47;6.40;99.90
14188;DHT22;7175;51.978;5.330;2023-02-01T07:47:15;6.40;99.90
14188;DHT22;7175;51.978;5.330;2023-02-01T07:49:43;6.40;99.90
14188;DHT22;7175;51.978;5.330;2023-02-01T07:52:12;6.50;99.90
14188;DHT22;7175;51.978;5.330;2023-02-01T07:54:43;6.40;99.90
14188;DHT22;7175;51.978;5.330;2023-02-01T07:57:11;6.40;99.90
14188;DHT22;7175;51.978;5.330;2023-02-01T07:59:40;6.40;99.90
14188;DHT22;7175;51.978;5.330;2023-02-01T08:02:28;6.50;99.90
14188;DHT22;7175;51.978;5.330;2023-02-01T08:04:55;6.60;99.90
14188;DHT22;7175;51.978;5.330;2023-02-01T08:07:24;6.60;99.90
14188;DHT22;7175;51.978;5.330;2023-02-01T08:09:52;6.50;99.90
14188;DHT22;7175;51.978;5.330;2023-02-01T08:12:20;6.50;99.90
14188;DHT22;7175;51.978;5.330;2023-02-01T08:14:51;6.50;99.90
14188;DHT22;7175;51.978;5.330;2023-02-01T08:17:20;6.50;99.90
14188;DHT22;7175;51.978;5.330;2023-02-01T08:19:48;6.50;99.90
14188;DHT22;7175;51.978;5.330;2023-02-01T08:22:16;6.50;99.90
14188;DHT22;7175;51.978;5.330;2023-02-01T08:24:47;6.50;99.90
14188;DHT22;7175;51.978;5.330;2023-02-01T08:27:15;6.60;99.90
14188;DHT22;7175;51.978;5.330;2023-02-01T08:29:44;6.60;99.90
14188;DHT22;7175;51.978;5.330;2023-02-01T08:32:12;6.50;99.90
14188;DHT22;7175;51.978;5.330;2023-02-01T08:34:40;6.50;99.90
14188;DHT22;7175;51.978;5.330;2023-02-01T08:37:08;6.50;99.90
14188;DHT22;7175;51.978;5.330;2023-02-01T08:39:36;6.50;99.90
14188;DHT22;7175;51.978;5.330;2023-02-01T08:42:06;6.60;99.90
14188;DHT22;7175;51.978;5.330;2023-02-01T08:44:51;6.60;99.90
14188;DHT22;7175;51.978;5.330;2023-02-01T08:47:19;6.70;99.90
14188;DHT22;7175;51.978;5.330;2023-02-01T08:49:47;6.90;99.90
14188;DHT22;7175;51.978;5.330;2023-02-01T08:52:16;6.90;99.90
14188;DHT22;7175;51.978;5.330;2023-02-01T08:54:44;7.00;99.90
14188;DHT22;7175;51.978;5.330;2023-02-01T08:57:13;7.00;99.90
14188;DHT22;7175;51.978;5.330;2023-02-01T08:59:41;7.10;99.90
14188;DHT22;7175;51.978;5.330;2023-02-01T09:02:12;7.30;99.90
14188;DHT22;7175;51.978;5.330;2023-02-01T09:04:41;7.50;99.90
14188;DHT22;7175;51.978;5.330;2023-02-01T09:07:10;7.40;99.90
14188;DHT22;7175;51.978;5.330;2023-02-01T09:09:40;7.60;99.90
14188;DHT22;7175;51.978;5.330;2023-02-01T09:12:08;7.70;99.90
14188;DHT22;7175;51.978;5.330;2023-02-01T09:14:38;7.80;99.90
14188;DHT22;7175;51.978;5.330;2023-02-01T09:17:06;7.80;99.90
14188;DHT22;7175;51.978;5.330;2023-02-01T09:19:35;7.90;99.90
14188;DHT22;7175;51.978;5.330;2023-02-01T09:22:03;7.90;99.90
14188;DHT22;7175;51.978;5.330;2023-02-01T09:24:32;7.90;99.90
14188;DHT22;7175;51.978;5.330;2023-02-01T09:27:00;7.90;99.90
14188;DHT22;7175;51.978;5.330;2023-02-01T09:29:29;7.90;99.90
14188;DHT22;7175;51.978;5.330;2023-02-01T09:31:59;8.00;99.90
14188;DHT22;7175;51.978;5.330;2023-02-01T09:34:31;8.20;99.90
14188;DHT22;7175;51.978;5.330;2023-02-01T09:36:59;8.20;99.90
14188;DHT22;7175;51.978;5.330;2023-02-01T09:39:29;8.30;99.90
14188;DHT22;7175;51.978;5.330;2023-02-01T09:42:05;8.30;99.90
14188;DHT22;7175;51.978;5.330;2023-02-01T09:44:52;8.30;99.90
14188;DHT22;7175;51.978;5.330;2023-02-01T09:47:24;8.30;99.90
14188;DHT22;7175;51.978;5.330;2023-02-01T09:49:57;8.20;99.90
14188;DHT22;7175;51.978;5.330;2023-02-01T09:52:31;8.20;99.90
14188;DHT22;7175;51.978;5.330;2023-02-01T09:55:06;8.20;99.90
14188;DHT22;7175;51.978;5.330;2023-02-01T09:57:43;8.10;99.90
14188;DHT22;7175;51.978;5.330;2023-02-01T10:00:19;8.20;99.90
14188;DHT22;7175;51.978;5.330;2023-02-01T10:02:51;8.20;99.90
14188;DHT22;7175;51.978;5.330;2023-02-01T10:05:38;8.20;99.90
14188;DHT22;7175;51.978;5.330;2023-02-01T10:08:18;8.10;99.90
14188;DHT22;7175;51.978;5.330;2023-02-01T10:10:49;8.10;99.90
14188;DHT22;7175;51.978;5.330;2023-02-01T10:13:43;8.10;99.90
14188;DHT22;7175;51.978;5.330;2023-02-01T10:16:18;8.00;99.90
14188;DHT22;7175;51.978;5.330;2023-02-01T10:19:01;8.00;99.90
14188;DHT22;7175;51.978;5.330;2023-02-01T10:21:54;8.00;99.90
14188;DHT22;7175;51.978;5.330;2023-02-01T10:27:28;8.00;99.90
14188;DHT22;7175;51.978;5.330;2023-02-01T10:30:00;7.90;99.90
14188;DHT22;7175;51.978;5.330;2023-02-01T10:32:30;7.90;99.90
14188;DHT22;7175;51.978;5.330;2023-02-01T10:35:03;7.80;99.90
14188;DHT22;7175;51.978;5.330;2023-02-01T10:37:36;7.70;99.90
14188;DHT22;7175;51.978;5.330;2023-02-01T10:40:15;7.70;99.90
14188;DHT22;7175;51.978;5.330;2023-02-01T10:42:44;7.70;99.90
14188;DHT22;7175;51.978;5.330;2023-02-01T10:45:15;7.80;99.90
14188;DHT22;7175;51.978;5.330;2023-02-01T10:47:46;7.80;99.90
14188;DHT22;7175;51.978;5.330;2023-02-01T10:50:26;7.80;99.90
14188;DHT22;7175;51.978;5.330;2023-02-01T10:53:01;7.80;99.90
14188;DHT22;7175;51.978;5.330;2023-02-01T10:55:37;7.80;99.90
14188;DHT22;7175;51.978;5.330;2023-02-01T10:58:14;7.90;99.90
14188;DHT22;7175;51.978;5.330;2023-02-01T11:00:46;8.00;99.90
14188;DHT22;7175;51.978;5.330;2023-02-01T11:03:32;8.00;99.90
14188;DHT22;7175;51.978;5.330;2023-02-01T11:06:09;8.00;99.90
14188;DHT22;7175;51.978;5.330;2023-02-01T11:08:49;8.00;99.90
14188;DHT22;7175;51.978;5.330;2023-02-01T11:11:18;8.00;99.90
14188;DHT22;7175;51.978;5.330;2023-02-01T11:13:54;8.10;99.90
14188;DHT22;7175;51.978;5.330;2023-02-01T11:16:30;8.10;99.90
14188;DHT22;7175;51.978;5.330;2023-02-01T11:18:58;8.10;99.90
14188;DHT22;7175;51.978;5.330;2023-02-01T11:21:28;8.10;99.90
14188;DHT22;7175;51.978;5.330;2023-02-01T11:24:00;8.10;99.90
14188;DHT22;7175;51.978;5.330;2023-02-01T11:26:29;8.10;99.90
14188;DHT22;7175;51.978;5.330;2023-02-01T11:29:02;8.00;99.90
14188;DHT22;7175;51.978;5.330;2023-02-01T11:31:33;8.00;99.90
14188;DHT22;7175;51.978;5.330;2023-02-01T11:34:06;7.90;99.90
14188;DHT22;7175;51.978;5.330;2023-02-01T11:36:37;7.80;99.90
14188;DHT22;7175;51.978;5.330;2023-02-01T11:39:28;7.80;99.90
14188;DHT22;7175;51.978;5.330;2023-02-01T11:42:01;7.90;99.90
14188;DHT22;7175;51.978;5.330;2023-02-01T11:44:33;7.90;99.90
14188;DHT22;7175;51.978;5.330;2023-02-01T11:47:24;7.90;99.90
14188;DHT22;7175;51.978;5.330;2023-02-01T11:49:54;7.90;99.90
14188;DHT22;7175;51.978;5.330;2023-02-01T11:52:44;8.00;99.90
14188;DHT22;7175;51.978;5.330;2023-02-01T11:55:33;8.10;99.90
14188;DHT22;7175;51.978;5.330;2023-02-01T11:58:12;8.30;99.90
14188;DHT22;7175;51.978;5.330;2023-02-01T12:00:55;8.30;99.90
14188;DHT22;7175;51.978;5.330;2023-02-01T12:03:49;8.40;99.90
14188;DHT22;7175;51.978;5.330;2023-02-01T12:06:27;8.40;99.90
14188;DHT22;7175;51.978;5.330;2023-02-01T12:12:02;8.40;99.90
14188;DHT22;7175;51.978;5.330;2023-02-01T12:14:45;8.50;99.90
14188;DHT22;7175;51.978;5.330;2023-02-01T12:17:39;8.70;99.90
14188;DHT22;7175;51.978;5.330;2023-02-01T12:20:21;8.80;99.90
14188;DHT22;7175;51.978;5.330;2023-02-01T12:23:10;8.90;99.90
14188;DHT22;7175;51.978;5.330;2023-02-01T12:25:58;8.90;99.90
14188;DHT22;7175;51.978;5.330;2023-02-01T12:31:49;8.70;99.90
14188;DHT22;7175;51.978;5.330;2023-02-01T12:34:46;8.70;99.90
14188;DHT22;7175;51.978;5.330;2023-02-01T12:37:27;8.70;99.90
14188;DHT22;7175;51.978;5.330;2023-02-01T12:40:05;8.80;99.90
14188;DHT22;7175;51.978;5.330;2023-02-01T12:42:43;8.80;99.90
14188;DHT22;7175;51.978;5.330;2023-02-01T12:45:17;8.80;99.90
14188;DHT22;7175;51.978;5.330;2023-02-01T12:47:52;8.80;99.90
14188;DHT22;7175;51.978;5.330;2023-02-01T12:50:27;8.80;99.90
14188;DHT22;7175;51.978;5.330;2023-02-01T12:53:12;8.80;99.90
14188;DHT22;7175;51.978;5.330;2023-02-01T12:56:06;8.80;99.90
14188;DHT22;7175;51.978;5.330;2023-02-01T12:58:42;8.80;99.90
14188;DHT22;7175;51.978;5.330;2023-02-01T13:01:15;8.90;99.90
14188;DHT22;7175;51.978;5.330;2023-02-01T13:03:54;9.00;99.90
14188;DHT22;7175;51.978;5.330;2023-02-01T13:06:27;9.00;99.90
14188;DHT22;7175;51.978;5.330;2023-02-01T13:09:02;9.00;99.90
14188;DHT22;7175;51.978;5.330;2023-02-01T13:11:34;9.10;99.90
14188;DHT22;7175;51.978;5.330;2023-02-01T13:14:13;9.10;99.90
14188;DHT22;7175;51.978;5.330;2023-02-01T13:16:48;9.10;99.90
14188;DHT22;7175;51.978;5.330;2023-02-01T13:19:22;9.10;99.90
14188;DHT22;7175;51.978;5.330;2023-02-01T13:21:55;9.10;99.90
14188;DHT22;7175;51.978;5.330;2023-02-01T13:24:31;9.10;99.90
14188;DHT22;7175;51.978;5.330;2023-02-01T13:27:00;9.00;99.90
14188;DHT22;7175;51.978;5.330;2023-02-01T13:29:31;9.00;99.90
14188;DHT22;7175;51.978;5.330;2023-02-01T13:32:20;9.00;99.90
14188;DHT22;7175;51.978;5.330;2023-02-01T13:35:50;8.90;99.90
14188;DHT22;7175;51.978;5.330;2023-02-01T13:41:24;8.90;99.90
14188;DHT22;7175;51.978;5.330;2023-02-01T13:43:58;9.00;99.90
14188;DHT22;7175;51.978;5.330;2023-02-01T13:46:29;9.10;99.90
14188;DHT22;7175;51.978;5.330;2023-02-01T13:49:00;9.00;99.90
14188;DHT22;7175;51.978;5.330;2023-02-01T13:51:37;9.00;99.90
14188;DHT22;7175;51.978;5.330;2023-02-01T13:54:25;9.00;99.90
14188;DHT22;7175;51.978;5.330;2023-02-01T13:56:54;9.00;99.90
14188;DHT22;7175;51.978;5.330;2023-02-01T14:00:05;8.90;99.90
14188;DHT22;7175;51.978;5.330;2023-02-01T14:03:06;8.90;99.90
14188;DHT22;7175;51.978;5.330;2023-02-01T14:05:55;8.80;99.90
14188;DHT22;7175;51.978;5.330;2023-02-01T14:08:39;8.80;99.90
14188;DHT22;7175;51.978;5.330;2023-02-01T14:11:33;8.80;99.90
14188;DHT22;7175;51.978;5.330;2023-02-01T14:17:33;8.80;99.90
14188;DHT22;7175;51.978;5.330;2023-02-01T14:23:25;8.70;99.90
14188;DHT22;7175;51.978;5.330;2023-02-01T14:26:09;8.70;99.90
14188;DHT22;7175;51.978;5.330;2023-02-01T14:28:42;8.70;99.90
14188;DHT22;7175;51.978;5.330;2023-02-01T14:31:32;8.80;99.90
14188;DHT22;7175;51.978;5.330;2023-02-01T14:34:09;8.80;99.90
14188;DHT22;7175;51.978;5.330;2023-02-01T14:36:45;8.80;99.90
14188;DHT22;7175;51.978;5.330;2023-02-01T14:39:25;8.80;99.90
14188;DHT22;7175;51.978;5.330;2023-02-01T14:41:57;8.70;99.90
14188;DHT22;7175;51.978;5.330;2023-02-01T14:44:31;8.80;99.90
14188;DHT22;7175;51.978;5.330;2023-02-01T14:49:56;8.80;99.90
14188;DHT22;7175;51.978;5.330;2023-02-01T14:52:30;8.80;99.90
14188;DHT22;7175;51.978;5.330;2023-02-01T14:55:05;8.80;99.90
14188;DHT22;7175;51.978;5.330;2023-02-01T14:57:37;8.80;99.90
14188;DHT22;7175;51.978;5.330;2023-02-01T15:00:17;8.70;99.90
14188;DHT22;7175;51.978;5.330;2023-02-01T15:02:48;8.60;99.90
14188;DHT22;7175;51.978;5.330;2023-02-01T15:05:27;8.50;99.90
14188;DHT22;7175;51.978;5.330;2023-02-01T15:08:00;8.50;99.90
14188;DHT22;7175;51.978;5.330;2023-02-01T15:10:33;8.40;99.90
14188;DHT22;7175;51.978;5.330;2023-02-01T15:13:18;8.40;99.90
14188;DHT22;7175;51.978;5.330;2023-02-01T15:16:00;8.40;99.90
14188;DHT22;7175;51.978;5.330;2023-02-01T15:18:28;8.40;99.90
14188;DHT22;7175;51.978;5.330;2023-02-01T15:20:57;8.50;99.90
14188;DHT22;7175;51.978;5.330;2023-02-01T15:23:46;8.50;99.90
14188;DHT22;7175;51.978;5.330;2023-02-01T15:26:27;8.50;99.90
14188;DHT22;7175;51.978;5.330;2023-02-01T15:28:56;8.60;99.90
14188;DHT22;7175;51.978;5.330;2023-02-01T15:31:33;8.50;99.90
14188;DHT22;7175;51.978;5.330;2023-02-01T15:34:02;8.60;99.90
14188;DHT22;7175;51.978;5.330;2023-02-01T15:36:30;8.60;99.90
14188;DHT22;7175;51.978;5.330;2023-02-01T15:39:19;8.60;99.90
14188;DHT22;7175;51.978;5.330;2023-02-01T15:41:53;8.60;99.90
14188;DHT22;7175;51.978;5.330;2023-02-01T15:44:33;8.60;99.90
14188;DHT22;7175;51.978;5.330;2023-02-01T15:47:07;8.60;99.90
14188;DHT22;7175;51.978;5.330;2023-02-01T15:49:40;8.50;99.90
14188;DHT22;7175;51.978;5.330;2023-02-01T15:52:20;8.50;99.90
14188;DHT22;7175;51.978;5.330;2023-02-01T15:54:51;8.50;99.90
14188;DHT22;7175;51.978;5.330;2023-02-01T15:57:24;8.50;99.90
14188;DHT22;7175;51.978;5.330;2023-02-01T15:59:58;8.50;99.90
14188;DHT22;7175;51.978;5.330;2023-02-01T16:02:33;8.50;99.90
14188;DHT22;7175;51.978;5.330;2023-02-01T16:05:03;8.50;99.90
14188;DHT22;7175;51.978;5.330;2023-02-01T16:07:33;8.50;99.90
14188;DHT22;7175;51.978;5.330;2023-02-01T16:10:20;8.50;99.90
14188;DHT22;7175;51.978;5.330;2023-02-01T16:12:52;8.50;99.90
14188;DHT22;7175;51.978;5.330;2023-02-01T16:15:25;8.50;99.90
14188;DHT22;7175;51.978;5.330;2023-02-01T16:17:56;8.50;99.90
14188;DHT22;7175;51.978;5.330;2023-02-01T16:20:25;8.40;99.90
14188;DHT22;7175;51.978;5.330;2023-02-01T16:22:53;8.40;99.90
14188;DHT22;7175;51.978;5.330;2023-02-01T16:25:22;8.40;99.90
14188;DHT22;7175;51.978;5.330;2023-02-01T16:27:52;8.40;99.90
14188;DHT22;7175;51.978;5.330;2023-02-01T16:30:21;8.40;99.90
14188;DHT22;7175;51.978;5.330;2023-02-01T16:32:52;8.40;99.90
14188;DHT22;7175;51.978;5.330;2023-02-01T16:35:23;8.40;99.90
14188;DHT22;7175;51.978;5.330;2023-02-01T16:37:52;8.40;99.90
14188;DHT22;7175;51.978;5.330;2023-02-01T16:40:21;8.50;99.90
14188;DHT22;7175;51.978;5.330;2023-02-01T16:42:52;8.50;99.90
14188;DHT22;7175;51.978;5.330;2023-02-01T16:45:21;8.60;99.90
14188;DHT22;7175;51.978;5.330;2023-02-01T16:47:53;8.50;99.90
14188;DHT22;7175;51.978;5.330;2023-02-01T16:50:23;8.50;99.90
14188;DHT22;7175;51.978;5.330;2023-02-01T16:52:52;8.50;99.90
14188;DHT22;7175;51.978;5.330;2023-02-01T16:55:21;8.60;99.90
14188;DHT22;7175;51.978;5.330;2023-02-01T16:57:51;8.70;99.90
14188;DHT22;7175;51.978;5.330;2023-02-01T17:00:20;8.70;99.90
14188;DHT22;7175;51.978;5.330;2023-02-01T17:02:51;8.70;99.90
14188;DHT22;7175;51.978;5.330;2023-02-01T17:05:19;8.70;99.90
14188;DHT22;7175;51.978;5.330;2023-02-01T17:07:49;8.70;99.90
14188;DHT22;7175;51.978;5.330;2023-02-01T17:10:22;8.80;99.90
14188;DHT22;7175;51.978;5.330;2023-02-01T17:13:01;8.70;99.90